createdAt,value
2018-12-18T00:01:15.745Z,126.73
2018-12-18T00:03:53.575Z,120.17
2018-12-18T00:06:31.708Z,128.73
2018-12-18T00:09:08.440Z,123.60
2018-12-18T00:11:44.864Z,132.60
2018-12-18T00:14:28.213Z,146.17
2018-12-18T00:17:04.093Z,150.00
2018-12-18T00:19:40.015Z,159.50
2018-12-18T00:22:15.774Z,134.90
2018-12-18T00:24:52.018Z,134.17
2018-12-18T00:27:27.985Z,125.60
2018-12-18T00:30:04.251Z,128.93
2018-12-18T00:32:39.935Z,148.40
2018-12-18T00:35:16.068Z,139.73
2018-12-18T00:37:55.445Z,151.30
2018-12-18T00:40:33.816Z,140.73
2018-12-18T00:43:09.830Z,148.47
2018-12-18T00:45:45.710Z,173.37
2018-12-18T00:48:22.863Z,132.93
2018-12-18T00:50:59.319Z,136.53
2018-12-18T00:53:35.291Z,136.47
2018-12-18T00:56:18.285Z,132.83
2018-12-18T00:58:54.898Z,137.47
2018-12-18T01:01:31.027Z,133.00
2018-12-18T01:04:07.069Z,133.30
2018-12-18T01:06:43.701Z,141.77
2018-12-18T01:09:22.856Z,130.20
2018-12-18T01:11:58.681Z,128.43
2018-12-18T01:14:34.543Z,166.67
2018-12-18T01:17:10.363Z,122.47
2018-12-18T01:19:46.448Z,115.00
2018-12-18T01:22:22.133Z,124.40
2018-12-18T01:24:58.076Z,135.37
2018-12-18T01:27:33.879Z,115.63
2018-12-18T01:30:09.844Z,126.10
2018-12-18T01:32:45.791Z,135.87
2018-12-18T01:35:21.479Z,129.07
2018-12-18T01:37:57.464Z,116.97
2018-12-18T01:40:33.465Z,121.73
2018-12-18T01:43:09.354Z,109.73
2018-12-18T01:45:45.108Z,120.13
2018-12-18T01:48:21.106Z,129.50
2018-12-18T01:50:57.242Z,122.07
2018-12-18T01:53:33.074Z,128.47
2018-12-18T01:56:08.986Z,114.47
2018-12-18T01:58:44.853Z,118.70
2018-12-18T02:01:20.767Z,107.20
2018-12-18T02:03:56.705Z,112.87
2018-12-18T02:06:32.397Z,116.83
2018-12-18T02:09:08.680Z,152.50
2018-12-18T02:11:46.360Z,125.10
2018-12-18T02:14:22.800Z,129.00
2018-12-18T02:16:58.505Z,105.30
2018-12-18T02:19:34.485Z,106.87
2018-12-18T02:22:10.307Z,114.13
2018-12-18T02:24:54.400Z,110.40
2018-12-18T02:27:31.035Z,102.83
2018-12-18T02:30:07.257Z,146.73
2018-12-18T02:32:43.750Z,115.20
2018-12-18T02:35:20.235Z,115.90
2018-12-18T02:37:56.225Z,121.23
2018-12-18T02:40:32.161Z,107.63
2018-12-18T02:43:08.256Z,118.10
2018-12-18T02:48:34.081Z,120.10
2018-12-18T02:51:12.120Z,119.77
2018-12-18T02:53:49.487Z,108.37
2018-12-18T02:56:25.561Z,108.27
2018-12-18T02:59:01.541Z,115.80
2018-12-18T03:01:37.305Z,109.07
2018-12-18T03:04:13.068Z,114.27
2018-12-18T03:06:48.967Z,109.00
2018-12-18T03:09:24.836Z,109.07
2018-12-18T03:12:00.785Z,108.27
2018-12-18T03:14:38.490Z,114.53
2018-12-18T03:17:14.594Z,122.17
2018-12-18T03:19:50.408Z,119.17
2018-12-18T03:22:26.289Z,120.30
2018-12-18T03:25:02.299Z,110.97
2018-12-18T03:27:38.239Z,132.83
2018-12-18T03:30:14.291Z,124.40
2018-12-18T03:32:53.899Z,138.40
2018-12-18T03:35:29.832Z,151.00
2018-12-18T03:38:05.834Z,161.77
2018-12-18T03:40:41.550Z,143.53
2018-12-18T03:43:17.259Z,138.30
2018-12-18T03:45:53.213Z,124.13
2018-12-18T03:48:29.333Z,130.10
2018-12-18T03:51:05.334Z,139.00
2018-12-18T03:53:41.129Z,167.03
2018-12-18T03:56:17.207Z,138.63
2018-12-18T03:58:52.884Z,132.37
2018-12-18T04:01:28.867Z,142.17
2018-12-18T04:04:04.840Z,138.40
2018-12-18T04:06:40.604Z,135.97
2018-12-18T04:09:16.643Z,127.93
2018-12-18T04:11:57.731Z,129.63
2018-12-18T04:14:33.392Z,133.80
2018-12-18T04:17:09.114Z,122.20
2018-12-18T04:19:46.012Z,122.40
2018-12-18T04:22:22.965Z,119.33
2018-12-18T04:24:59.096Z,119.47
2018-12-18T04:27:35.005Z,116.73
2018-12-18T04:30:11.208Z,116.60
2018-12-18T04:32:46.975Z,140.60
2018-12-18T04:35:24.907Z,128.97
2018-12-18T04:38:01.134Z,128.43
2018-12-18T04:40:36.818Z,111.97
2018-12-18T04:43:13.404Z,122.03
2018-12-18T04:45:49.429Z,126.47
2018-12-18T04:48:25.339Z,129.30
2018-12-18T04:51:01.226Z,126.10
2018-12-18T04:53:37.003Z,156.50
2018-12-18T04:56:12.827Z,126.90
2018-12-18T04:58:48.940Z,129.27
2018-12-18T05:01:24.881Z,134.67
2018-12-18T05:04:00.856Z,132.40
2018-12-18T05:06:36.905Z,139.77
2018-12-18T05:09:14.607Z,128.37
2018-12-18T05:11:50.767Z,139.90
2018-12-18T05:14:26.777Z,125.43
2018-12-18T05:17:02.576Z,113.37
2018-12-18T05:19:38.481Z,118.00
2018-12-18T05:22:14.762Z,117.73
2018-12-18T05:24:51.225Z,115.40
2018-12-18T05:27:27.336Z,128.57
2018-12-18T05:30:03.561Z,124.63
2018-12-18T05:32:40.764Z,135.73
2018-12-18T05:35:17.070Z,158.87
2018-12-18T05:37:52.954Z,142.60
2018-12-18T05:40:29.717Z,154.67
2018-12-18T05:43:05.493Z,171.30
2018-12-18T05:45:41.299Z,152.37
2018-12-18T05:48:17.319Z,150.00
2018-12-18T05:50:53.464Z,168.60
2018-12-18T05:53:29.956Z,166.13
2018-12-18T05:56:05.886Z,146.07
2018-12-18T05:58:41.786Z,141.87
2018-12-18T06:01:17.742Z,153.07
2018-12-18T06:03:54.322Z,135.23
2018-12-18T06:06:30.406Z,138.87
2018-12-18T06:09:07.637Z,126.27
2018-12-18T06:11:43.307Z,144.07
2018-12-18T06:14:19.144Z,123.00
2018-12-18T06:16:54.779Z,135.00
2018-12-18T06:19:30.567Z,135.40
2018-12-18T06:22:06.697Z,130.10
2018-12-18T06:24:42.387Z,133.30
2018-12-18T06:27:18.225Z,129.60
2018-12-18T06:29:54.270Z,134.17
2018-12-18T06:32:30.073Z,140.17
2018-12-18T06:35:10.269Z,138.90
2018-12-18T06:37:43.769Z,136.90
2018-12-18T06:40:19.655Z,124.80
2018-12-18T06:42:55.398Z,137.60
2018-12-18T06:45:31.182Z,143.53
2018-12-18T06:48:06.955Z,140.23
2018-12-18T06:50:42.928Z,138.87
2018-12-18T06:53:18.720Z,132.90
2018-12-18T06:55:54.403Z,125.13
2018-12-18T06:58:30.574Z,147.33
2018-12-18T07:01:06.323Z,140.90
2018-12-18T07:03:41.924Z,136.20
2018-12-18T07:06:18.091Z,130.97
2018-12-18T07:08:53.862Z,124.90
2018-12-18T07:11:30.027Z,124.47
2018-12-18T07:14:05.839Z,128.70
2018-12-18T07:16:41.840Z,126.50
2018-12-18T07:19:17.736Z,134.17
2018-12-18T07:21:53.584Z,124.23
2018-12-18T07:24:29.528Z,138.47
2018-12-18T07:27:05.314Z,129.23
2018-12-18T07:29:41.098Z,115.57
2018-12-18T07:32:16.683Z,123.63
2018-12-18T07:34:52.582Z,170.30
2018-12-18T07:37:28.483Z,204.90
2018-12-18T07:40:05.356Z,214.13
2018-12-18T07:42:41.133Z,224.67
2018-12-18T07:45:17.208Z,231.83
2018-12-18T07:47:53.054Z,217.53
2018-12-18T07:50:28.948Z,203.67
2018-12-18T07:53:04.735Z,190.50
2018-12-18T07:55:40.754Z,159.93
2018-12-18T07:58:16.379Z,192.83
2018-12-18T08:00:52.060Z,191.63
2018-12-18T08:03:27.977Z,161.03
2018-12-18T08:06:04.532Z,155.57
2018-12-18T08:08:40.229Z,130.53
2018-12-18T08:11:16.091Z,140.20
2018-12-18T08:13:51.957Z,132.87
2018-12-18T08:16:27.810Z,115.50
2018-12-18T08:19:03.829Z,121.67
2018-12-18T08:21:39.871Z,114.70
2018-12-18T08:24:16.115Z,129.30
2018-12-18T08:26:53.563Z,133.37
2018-12-18T08:29:29.629Z,117.37
2018-12-18T08:32:05.251Z,135.90
2018-12-18T08:34:41.369Z,136.43
2018-12-18T08:37:17.379Z,125.20
2018-12-18T08:39:53.361Z,128.17
2018-12-18T08:42:29.010Z,120.73
2018-12-18T08:45:06.007Z,129.33
2018-12-18T08:47:41.856Z,123.07
2018-12-18T08:50:17.455Z,125.67
2018-12-18T08:52:53.425Z,138.27
2018-12-18T08:55:29.442Z,131.97
2018-12-18T08:58:05.343Z,119.10
2018-12-18T09:00:41.206Z,122.30
2018-12-18T09:03:17.350Z,110.63
2018-12-18T09:05:53.332Z,104.47
2018-12-18T09:08:29.938Z,105.97
2018-12-18T09:11:06.262Z,108.63
2018-12-18T09:13:42.648Z,104.97
2018-12-18T09:16:24.773Z,119.30
2018-12-18T09:19:01.866Z,99.97
2018-12-18T09:21:37.773Z,99.70
2018-12-18T09:24:14.731Z,104.00
2018-12-18T09:26:51.170Z,105.83
2018-12-18T09:29:27.770Z,110.77
2018-12-18T09:32:05.322Z,108.63
2018-12-18T09:34:41.425Z,104.90
2018-12-18T09:37:18.466Z,106.00
2018-12-18T09:39:55.488Z,100.23
2018-12-18T09:42:36.904Z,108.83
2018-12-18T09:45:13.995Z,100.70
2018-12-18T09:47:49.759Z,100.87
2018-12-18T09:50:26.414Z,97.63
2018-12-18T09:53:03.024Z,88.83
2018-12-18T09:55:39.120Z,89.10
2018-12-18T09:58:15.362Z,84.37
2018-12-18T10:00:52.337Z,82.30
2018-12-18T10:03:33.420Z,81.23
2018-12-18T10:06:06.825Z,82.30
2018-12-18T10:08:42.606Z,85.33
2018-12-18T10:11:18.739Z,85.07
2018-12-18T10:13:55.294Z,80.67
2018-12-18T10:16:31.064Z,85.10
2018-12-18T10:19:06.826Z,90.07
2018-12-18T10:21:43.315Z,78.67
2018-12-18T10:24:19.686Z,84.07
2018-12-18T10:26:56.348Z,87.57
2018-12-18T10:29:32.088Z,83.70
2018-12-18T10:32:08.065Z,144.80
2018-12-18T10:34:43.616Z,243.67
2018-12-18T10:37:19.505Z,189.63
2018-12-18T10:39:55.641Z,133.73
2018-12-18T10:42:31.639Z,103.37
2018-12-18T10:45:13.859Z,101.00
2018-12-18T10:47:51.219Z,96.97
2018-12-18T10:50:27.180Z,94.67
2018-12-18T10:53:04.093Z,82.87
2018-12-18T10:55:39.899Z,87.00
2018-12-18T10:58:15.996Z,81.03
2018-12-18T11:00:57.219Z,78.13
2018-12-18T11:03:33.466Z,88.80
2018-12-18T11:06:10.230Z,91.30
2018-12-18T11:08:47.492Z,84.53
2018-12-18T11:11:23.669Z,87.30
2018-12-18T11:14:00.230Z,77.97
2018-12-18T11:16:37.416Z,90.83
2018-12-18T11:19:14.055Z,98.67
2018-12-18T11:21:49.724Z,90.30
2018-12-18T11:24:25.522Z,110.63
2018-12-18T11:27:01.573Z,91.53
2018-12-18T11:29:37.261Z,83.70
2018-12-18T11:32:13.417Z,91.07
2018-12-18T11:34:49.050Z,88.20
2018-12-18T11:37:25.176Z,115.03
2018-12-18T11:40:02.741Z,118.20
2018-12-18T11:42:38.514Z,130.07
2018-12-18T11:45:14.570Z,116.03
2018-12-18T11:47:50.324Z,123.30
2018-12-18T11:50:26.051Z,115.53
2018-12-18T11:53:02.143Z,125.77
2018-12-18T11:55:38.759Z,109.33
2018-12-18T11:58:15.792Z,113.90
2018-12-18T12:00:51.720Z,94.73
2018-12-18T12:03:28.510Z,103.57
2018-12-18T12:06:07.346Z,104.70
2018-12-18T12:08:43.822Z,102.63
2018-12-18T12:11:20.628Z,117.30
2018-12-18T12:13:58.257Z,113.13
2018-12-18T12:16:35.198Z,116.53
2018-12-18T12:19:12.041Z,92.60
2018-12-18T12:21:48.478Z,107.73
2018-12-18T12:24:24.943Z,96.07
2018-12-18T12:27:06.460Z,107.23
2018-12-18T12:29:44.039Z,110.10
2018-12-18T12:32:21.198Z,109.83
2018-12-18T12:34:57.480Z,113.10
2018-12-18T12:37:33.427Z,166.97
2018-12-18T12:40:10.447Z,123.37
2018-12-18T12:42:46.436Z,111.63
2018-12-18T12:45:22.928Z,101.93
2018-12-18T12:48:02.821Z,97.83
2018-12-18T12:50:39.289Z,106.73
2018-12-18T12:53:15.941Z,97.37
2018-12-18T12:55:52.812Z,98.80
2018-12-18T12:58:29.420Z,103.17
2018-12-18T13:01:06.164Z,98.30
2018-12-18T13:03:43.686Z,94.07
2018-12-18T13:06:20.904Z,98.37
2018-12-18T13:08:57.719Z,106.07
2018-12-18T13:11:34.578Z,107.63
2018-12-18T13:14:10.644Z,103.60
2018-12-18T13:16:46.721Z,115.13
2018-12-18T13:19:24.711Z,109.87
2018-12-18T13:22:02.274Z,126.50
2018-12-18T13:24:38.170Z,114.60
2018-12-18T13:27:14.585Z,128.37
2018-12-18T13:29:51.296Z,125.87
2018-12-18T13:32:28.240Z,116.67
2018-12-18T13:35:05.689Z,120.13
2018-12-18T13:37:42.930Z,105.33
2018-12-18T13:40:19.876Z,107.37
2018-12-18T13:42:56.250Z,112.80
2018-12-18T13:45:33.383Z,111.73
2018-12-18T13:48:10.265Z,116.10
2018-12-18T13:50:47.023Z,110.67
2018-12-18T13:53:23.428Z,147.13
2018-12-18T13:55:59.948Z,126.03
2018-12-18T13:58:36.732Z,112.50
2018-12-18T14:01:13.691Z,111.20
2018-12-18T14:03:50.262Z,118.47
2018-12-18T14:06:26.922Z,130.43
2018-12-18T14:09:02.659Z,121.73
2018-12-18T14:11:40.750Z,121.90
2018-12-18T14:14:18.630Z,124.93
2018-12-18T14:16:54.913Z,123.70
2018-12-18T14:19:31.268Z,114.23
2018-12-18T14:22:07.433Z,113.40
2018-12-18T14:24:45.147Z,125.43
2018-12-18T14:27:21.104Z,125.10
2018-12-18T14:29:58.637Z,116.33
2018-12-18T14:32:34.649Z,118.50
2018-12-18T14:35:11.308Z,135.00
2018-12-18T14:37:48.890Z,130.00
2018-12-18T14:40:25.731Z,113.10
2018-12-18T14:43:01.694Z,117.50
2018-12-18T14:45:39.278Z,118.30
2018-12-18T14:48:16.061Z,118.50
2018-12-18T14:50:53.171Z,112.57
2018-12-18T14:53:30.286Z,105.90
2018-12-18T14:56:06.814Z,119.03
2018-12-18T14:58:42.968Z,105.97
2018-12-18T15:01:19.923Z,120.50
2018-12-18T15:03:56.561Z,123.83
2018-12-18T15:06:32.504Z,114.17
2018-12-18T15:09:08.342Z,102.13
2018-12-18T15:11:44.409Z,112.00
2018-12-18T15:14:20.186Z,101.00
2018-12-18T15:16:56.006Z,98.83
2018-12-18T15:19:31.670Z,121.07
2018-12-18T15:22:07.540Z,127.97
2018-12-18T15:24:43.537Z,107.77
2018-12-18T15:27:20.571Z,108.23
2018-12-18T15:29:56.304Z,111.43
2018-12-18T15:32:32.428Z,101.63
2018-12-18T15:35:08.288Z,121.60
2018-12-18T15:37:44.199Z,117.57
2018-12-18T15:40:20.823Z,101.90
2018-12-18T15:42:57.708Z,122.67
2018-12-18T15:45:34.088Z,130.70
2018-12-18T15:48:10.710Z,126.43
2018-12-18T15:50:47.790Z,120.73
2018-12-18T15:53:24.316Z,125.13
2018-12-18T15:56:00.208Z,118.40
2018-12-18T15:58:36.771Z,114.23
2018-12-18T16:01:12.562Z,115.83
2018-12-18T16:03:48.294Z,123.73
2018-12-18T16:06:24.159Z,107.60
2018-12-18T16:09:00.283Z,118.27
2018-12-18T16:11:38.372Z,109.77
2018-12-18T16:14:14.764Z,111.73
2018-12-18T16:16:51.051Z,111.90
2018-12-18T16:19:27.041Z,125.53
2018-12-18T16:22:02.930Z,145.70
2018-12-18T16:24:38.784Z,121.70
2018-12-18T16:27:14.541Z,137.00
2018-12-18T16:29:50.452Z,137.13
2018-12-18T16:32:26.444Z,130.47
2018-12-18T16:35:02.169Z,188.30
2018-12-18T16:37:39.040Z,133.93
2018-12-18T16:40:15.367Z,123.40
2018-12-18T16:42:51.827Z,112.97
2018-12-18T16:45:28.479Z,110.67
2018-12-18T16:48:05.125Z,100.83
2018-12-18T16:50:41.387Z,136.97
2018-12-18T16:53:17.480Z,124.03
2018-12-18T16:55:54.471Z,105.43
2018-12-18T16:58:30.510Z,112.40
2018-12-18T17:01:06.497Z,111.90
2018-12-18T17:03:43.375Z,109.40
2018-12-18T17:06:20.351Z,108.47
2018-12-18T17:08:56.046Z,132.57
2018-12-18T17:11:35.090Z,155.37
2018-12-18T17:14:14.327Z,122.70
2018-12-18T17:16:50.611Z,108.47
2018-12-18T17:19:26.318Z,112.43
2018-12-18T17:22:03.222Z,131.37
2018-12-18T17:24:39.341Z,111.80
2018-12-18T17:27:15.212Z,106.33
2018-12-18T17:29:52.188Z,102.70
2018-12-18T17:32:29.570Z,98.40
2018-12-18T17:35:05.907Z,98.90
2018-12-18T17:37:42.589Z,108.23
2018-12-18T17:40:19.314Z,91.50
2018-12-18T17:42:55.452Z,95.77
2018-12-18T17:45:32.166Z,118.17
2018-12-18T17:48:09.786Z,110.07
2018-12-18T17:50:45.735Z,104.43
2018-12-18T17:53:21.424Z,95.87
2018-12-18T17:55:57.495Z,87.83
2018-12-18T17:58:33.462Z,92.47
2018-12-18T18:01:12.562Z,97.13
2018-12-18T18:03:49.792Z,92.63
2018-12-18T18:06:27.457Z,98.60
2018-12-18T18:09:05.792Z,89.50
2018-12-18T18:11:43.989Z,100.17
2018-12-18T18:14:21.638Z,100.50
2018-12-18T18:16:58.375Z,87.70
2018-12-18T18:19:35.588Z,116.93
2018-12-18T18:22:11.655Z,96.40
2018-12-18T18:24:48.563Z,96.17
2018-12-18T18:27:25.461Z,88.03
2018-12-18T18:30:02.077Z,103.53
2018-12-18T18:32:38.948Z,109.03
2018-12-18T18:35:16.214Z,104.30
2018-12-18T18:37:53.275Z,103.03
2018-12-18T18:40:30.104Z,93.07
2018-12-18T18:43:08.271Z,102.03
2018-12-18T18:45:44.534Z,116.40
2018-12-18T18:48:22.928Z,110.63
2018-12-18T18:51:00.017Z,94.53
2018-12-18T18:53:35.931Z,92.63
2018-12-18T18:56:12.081Z,97.40
2018-12-18T18:58:48.822Z,114.60
2018-12-18T19:01:25.463Z,109.57
2018-12-18T19:04:01.603Z,97.00
2018-12-18T19:06:37.582Z,102.30
2018-12-18T19:09:13.714Z,101.50
2018-12-18T19:11:50.504Z,98.67
2018-12-18T19:14:28.057Z,111.63
2018-12-18T19:17:05.179Z,113.67
2018-12-18T19:19:42.590Z,108.60
2018-12-18T19:22:19.899Z,127.43
2018-12-18T19:24:57.774Z,115.13
2018-12-18T19:27:34.553Z,139.27
2018-12-18T19:30:10.913Z,136.40
2018-12-18T19:32:47.939Z,154.70
2018-12-18T19:35:24.584Z,165.30
2018-12-18T19:38:03.284Z,212.10
2018-12-18T19:40:39.006Z,213.80
2018-12-18T19:43:14.778Z,211.80
2018-12-18T19:45:51.173Z,191.13
2018-12-18T19:48:28.041Z,230.57
2018-12-18T19:51:04.676Z,193.40
2018-12-18T19:53:41.699Z,201.90
2018-12-18T19:56:18.672Z,237.27
2018-12-18T19:58:56.558Z,263.17
2018-12-18T20:01:33.790Z,199.87
2018-12-18T20:04:10.122Z,198.80
2018-12-18T20:06:45.793Z,231.57
2018-12-18T20:09:21.775Z,245.17
2018-12-18T20:11:58.002Z,215.10
2018-12-18T20:14:34.832Z,200.87
2018-12-18T20:17:12.118Z,204.27
2018-12-18T20:19:49.882Z,183.57
2018-12-18T20:22:26.979Z,164.07
2018-12-18T20:25:03.534Z,157.57
2018-12-18T20:27:39.246Z,161.63
2018-12-18T20:30:14.988Z,156.40
2018-12-18T20:32:50.895Z,166.73
2018-12-18T20:35:27.895Z,196.47
2018-12-18T20:38:04.817Z,160.10
2018-12-18T20:40:42.836Z,229.80
2018-12-18T20:43:22.125Z,183.13
2018-12-18T20:46:00.819Z,177.73
2018-12-18T20:48:37.807Z,141.63
2018-12-18T20:54:28.749Z,126.57
2018-12-18T20:57:04.935Z,117.60
2018-12-18T20:59:40.908Z,110.70
2018-12-18T21:02:16.710Z,116.87
2018-12-18T21:04:52.615Z,134.77
2018-12-18T21:07:28.605Z,130.40
2018-12-18T21:10:06.187Z,137.27
2018-12-18T21:12:46.672Z,129.07
2018-12-18T21:15:24.243Z,124.87
2018-12-18T21:18:01.076Z,165.77
2018-12-18T21:20:38.238Z,235.97
2018-12-18T21:23:15.215Z,215.33
2018-12-18T21:25:52.126Z,232.67
2018-12-18T21:28:29.063Z,269.17
2018-12-18T21:31:05.405Z,223.50
2018-12-18T21:33:42.225Z,238.03
2018-12-18T21:36:18.728Z,278.33
2018-12-18T21:38:55.508Z,230.47
2018-12-18T21:41:32.628Z,253.57
2018-12-18T21:44:10.092Z,236.97
2018-12-18T21:46:47.996Z,219.13
2018-12-18T21:49:26.814Z,197.10
2018-12-18T21:52:05.088Z,188.97
2018-12-18T21:54:42.079Z,199.33
2018-12-18T21:57:19.651Z,225.70
2018-12-18T21:59:56.546Z,208.23
2018-12-18T22:02:33.608Z,205.07
2018-12-18T22:05:10.201Z,176.33
2018-12-18T22:07:47.252Z,211.80
2018-12-18T22:10:23.882Z,232.40
2018-12-18T22:13:01.115Z,205.17
2018-12-18T22:15:38.348Z,220.20
2018-12-18T22:18:15.129Z,219.03
2018-12-18T22:20:52.798Z,220.37
2018-12-18T22:23:29.453Z,193.70
2018-12-18T22:26:07.003Z,211.90
2018-12-18T22:28:45.015Z,219.70
2018-12-18T22:31:22.488Z,195.17
2018-12-18T22:33:58.913Z,189.77
2018-12-18T22:36:35.654Z,212.50
2018-12-18T22:39:13.436Z,204.13
2018-12-18T22:41:50.888Z,239.20
2018-12-18T22:44:28.123Z,196.40
2018-12-18T22:47:04.641Z,241.57
2018-12-18T22:49:41.959Z,257.50
2018-12-18T22:52:18.779Z,232.13
2018-12-18T22:54:55.153Z,234.70
2018-12-18T22:57:41.602Z,231.23
2018-12-18T23:03:43.945Z,211.93
2018-12-18T23:06:24.157Z,212.60
2018-12-18T23:09:04.995Z,220.57
2018-12-18T23:11:51.390Z,209.80
2018-12-18T23:14:31.598Z,211.20
2018-12-18T23:20:14.354Z,247.47
2018-12-18T23:22:50.343Z,224.43
2018-12-18T23:25:26.311Z,231.10
2018-12-18T23:28:03.367Z,238.87
2018-12-18T23:30:39.039Z,202.90
2018-12-18T23:33:14.886Z,236.27
2018-12-18T23:35:50.986Z,214.53
2018-12-18T23:38:26.775Z,229.33
2018-12-18T23:41:02.616Z,245.03
2018-12-18T23:43:38.391Z,277.13
2018-12-18T23:46:14.358Z,267.47
2018-12-18T23:48:50.499Z,266.50
2018-12-18T23:51:26.327Z,303.70
2018-12-18T23:54:01.965Z,302.73
2018-12-18T23:56:38.590Z,315.27
2018-12-18T23:59:14.939Z,313.47
